Terminal Aerodrome Forecast
Issued by NWS Binghamton, NY

Home | Current Version | Previous Version | Text Only | Print | Product List | Glossary On
Versions: 1 2 3 4 5 6 7 8 9 10 11 12 13 14 15 16 17
000
FTUS41 KBGM 231130
TAFSYR
TAF
KSYR 231130Z 2312/2412 13010KT P6SM -RA OVC045 WS020/19035KT
      TEMPO 2312/2314 3SM RA BR OVC025
     FM231700 23010KT P6SM -SHRASN OVC035
     FM240000 28012G22KT 1 1/2SM -SHSN OVC015=

USA.gov is the U.S. government's official web portal to all federal, state and local government web resources and services.